sensor_id;sensor_type;location;lat;lon;timestamp;P1;durP1;ratioP1;P2;durP2;ratioP2
70825;SDS011;58446;41.490;22.098;2023-12-07T00:01:04;25.80;;;15.07;;
70825;SDS011;58446;41.490;22.098;2023-12-07T00:03:30;27.07;;;16.63;;
70825;SDS011;58446;41.490;22.098;2023-12-07T00:05:56;29.13;;;17.30;;
70825;SDS011;58446;41.490;22.098;2023-12-07T00:08:21;29.47;;;18.43;;
70825;SDS011;58446;41.490;22.098;2023-12-07T00:10:47;28.52;;;17.55;;
70825;SDS011;58446;41.490;22.098;2023-12-07T00:13:12;30.27;;;17.90;;
70825;SDS011;58446;41.490;22.098;2023-12-07T00:15:38;29.63;;;18.02;;
70825;SDS011;58446;41.490;22.098;2023-12-07T00:18:04;26.47;;;16.13;;
70825;SDS011;58446;41.490;22.098;2023-12-07T00:20:30;27.88;;;15.20;;
70825;SDS011;58446;41.490;22.098;2023-12-07T00:22:55;30.10;;;16.57;;
70825;SDS011;58446;41.490;22.098;2023-12-07T00:25:21;30.38;;;16.55;;
70825;SDS011;58446;41.490;22.098;2023-12-07T00:27:48;26.77;;;15.02;;
70825;SDS011;58446;41.490;22.098;2023-12-07T00:30:14;27.97;;;15.63;;
70825;SDS011;58446;41.490;22.098;2023-12-07T00:32:40;35.85;;;19.10;;
70825;SDS011;58446;41.490;22.098;2023-12-07T00:35:09;30.55;;;19.20;;
70825;SDS011;58446;41.490;22.098;2023-12-07T00:37:35;34.25;;;19.83;;
70825;SDS011;58446;41.490;22.098;2023-12-07T00:40:01;33.47;;;17.90;;
70825;SDS011;58446;41.490;22.098;2023-12-07T00:42:28;26.88;;;16.67;;
70825;SDS011;58446;41.490;22.098;2023-12-07T00:44:54;28.48;;;15.85;;
70825;SDS011;58446;41.490;22.098;2023-12-07T00:47:20;27.53;;;15.90;;
70825;SDS011;58446;41.490;22.098;2023-12-07T00:49:46;29.02;;;16.13;;
70825;SDS011;58446;41.490;22.098;2023-12-07T00:52:12;37.15;;;19.90;;
70825;SDS011;58446;41.490;22.098;2023-12-07T00:54:38;27.55;;;16.40;;
70825;SDS011;58446;41.490;22.098;2023-12-07T00:57:04;27.67;;;17.10;;
70825;SDS011;58446;41.490;22.098;2023-12-07T00:59:30;27.63;;;17.08;;
70825;SDS011;58446;41.490;22.098;2023-12-07T01:02:07;26.98;;;16.00;;
70825;SDS011;58446;41.490;22.098;2023-12-07T01:04:33;29.67;;;16.80;;
70825;SDS011;58446;41.490;22.098;2023-12-07T01:06:59;26.93;;;16.07;;
70825;SDS011;58446;41.490;22.098;2023-12-07T01:09:25;30.15;;;18.92;;
70825;SDS011;58446;41.490;22.098;2023-12-07T01:11:51;27.42;;;16.95;;
70825;SDS011;58446;41.490;22.098;2023-12-07T01:14:17;25.10;;;15.83;;
70825;SDS011;58446;41.490;22.098;2023-12-07T01:16:43;24.15;;;15.93;;
70825;SDS011;58446;41.490;22.098;2023-12-07T01:19:10;26.80;;;16.13;;
70825;SDS011;58446;41.490;22.098;2023-12-07T01:21:39;24.80;;;16.88;;
70825;SDS011;58446;41.490;22.098;2023-12-07T01:24:06;25.03;;;16.57;;
70825;SDS011;58446;41.490;22.098;2023-12-07T01:26:32;28.25;;;16.55;;
70825;SDS011;58446;41.490;22.098;2023-12-07T01:28:58;31.30;;;18.85;;
70825;SDS011;58446;41.490;22.098;2023-12-07T01:31:24;26.63;;;16.27;;
70825;SDS011;58446;41.490;22.098;2023-12-07T01:33:49;23.35;;;16.60;;
70825;SDS011;58446;41.490;22.098;2023-12-07T01:36:15;25.23;;;16.60;;
70825;SDS011;58446;41.490;22.098;2023-12-07T01:38:42;26.43;;;16.20;;
70825;SDS011;58446;41.490;22.098;2023-12-07T01:41:08;26.20;;;16.10;;
70825;SDS011;58446;41.490;22.098;2023-12-07T01:43:34;25.25;;;15.95;;
70825;SDS011;58446;41.490;22.098;2023-12-07T01:46:00;25.73;;;16.80;;
70825;SDS011;58446;41.490;22.098;2023-12-07T01:48:26;25.90;;;16.27;;
70825;SDS011;58446;41.490;22.098;2023-12-07T01:50:54;23.20;;;15.57;;
70825;SDS011;58446;41.490;22.098;2023-12-07T01:53:23;26.13;;;15.93;;
70825;SDS011;58446;41.490;22.098;2023-12-07T01:55:51;25.02;;;16.23;;
70825;SDS011;58446;41.490;22.098;2023-12-07T01:58:18;26.57;;;15.70;;
70825;SDS011;58446;41.490;22.098;2023-12-07T02:00:45;26.92;;;15.65;;
70825;SDS011;58446;41.490;22.098;2023-12-07T02:03:12;21.05;;;14.00;;
70825;SDS011;58446;41.490;22.098;2023-12-07T02:05:41;23.70;;;15.15;;
70825;SDS011;58446;41.490;22.098;2023-12-07T02:08:08;23.25;;;15.02;;
70825;SDS011;58446;41.490;22.098;2023-12-07T02:10:34;24.30;;;13.80;;
70825;SDS011;58446;41.490;22.098;2023-12-07T02:13:00;22.23;;;13.85;;
70825;SDS011;58446;41.490;22.098;2023-12-07T02:15:26;20.90;;;13.60;;
70825;SDS011;58446;41.490;22.098;2023-12-07T02:18:01;24.27;;;14.03;;
70825;SDS011;58446;41.490;22.098;2023-12-07T02:20:29;19.70;;;12.25;;
70825;SDS011;58446;41.490;22.098;2023-12-07T02:23:03;21.35;;;13.55;;
70825;SDS011;58446;41.490;22.098;2023-12-07T02:25:44;19.88;;;13.25;;
70825;SDS011;58446;41.490;22.098;2023-12-07T02:28:51;20.27;;;12.43;;
70825;SDS011;58446;41.490;22.098;2023-12-07T02:31:17;20.80;;;12.88;;
70825;SDS011;58446;41.490;22.098;2023-12-07T02:33:43;21.73;;;13.07;;
70825;SDS011;58446;41.490;22.098;2023-12-07T02:36:09;21.50;;;12.70;;
70825;SDS011;58446;41.490;22.098;2023-12-07T02:38:37;20.70;;;12.32;;
70825;SDS011;58446;41.490;22.098;2023-12-07T02:41:03;19.92;;;12.93;;
70825;SDS011;58446;41.490;22.098;2023-12-07T02:43:31;19.20;;;12.52;;
70825;SDS011;58446;41.490;22.098;2023-12-07T02:45:57;18.63;;;11.93;;
70825;SDS011;58446;41.490;22.098;2023-12-07T02:48:23;17.57;;;11.43;;
70825;SDS011;58446;41.490;22.098;2023-12-07T02:50:49;17.03;;;11.20;;
70825;SDS011;58446;41.490;22.098;2023-12-07T02:53:14;19.93;;;11.47;;
70825;SDS011;58446;41.490;22.098;2023-12-07T02:55:40;19.95;;;11.43;;
70825;SDS011;58446;41.490;22.098;2023-12-07T02:58:06;17.23;;;10.90;;
70825;SDS011;58446;41.490;22.098;2023-12-07T03:00:32;17.90;;;10.93;;
70825;SDS011;58446;41.490;22.098;2023-12-07T03:02:57;17.07;;;10.60;;
70825;SDS011;58446;41.490;22.098;2023-12-07T03:05:23;19.07;;;10.83;;
70825;SDS011;58446;41.490;22.098;2023-12-07T03:07:48;18.25;;;10.57;;
70825;SDS011;58446;41.490;22.098;2023-12-07T03:10:14;17.00;;;9.63;;
70825;SDS011;58446;41.490;22.098;2023-12-07T03:12:40;18.05;;;10.38;;
70825;SDS011;58446;41.490;22.098;2023-12-07T03:15:05;16.10;;;9.93;;
70825;SDS011;58446;41.490;22.098;2023-12-07T03:17:31;14.10;;;9.05;;
70825;SDS011;58446;41.490;22.098;2023-12-07T03:19:57;16.53;;;9.17;;
70825;SDS011;58446;41.490;22.098;2023-12-07T03:22:23;16.80;;;9.48;;
70825;SDS011;58446;41.490;22.098;2023-12-07T03:24:50;16.83;;;8.88;;
70825;SDS011;58446;41.490;22.098;2023-12-07T03:27:17;15.00;;;9.00;;
70825;SDS011;58446;41.490;22.098;2023-12-07T03:29:43;16.83;;;8.90;;
70825;SDS011;58446;41.490;22.098;2023-12-07T03:32:08;16.38;;;9.38;;
70825;SDS011;58446;41.490;22.098;2023-12-07T03:34:34;15.53;;;9.07;;
70825;SDS011;58446;41.490;22.098;2023-12-07T03:37:00;13.70;;;8.70;;
70825;SDS011;58446;41.490;22.098;2023-12-07T03:39:25;14.30;;;9.20;;
70825;SDS011;58446;41.490;22.098;2023-12-07T03:41:52;15.88;;;9.20;;
70825;SDS011;58446;41.490;22.098;2023-12-07T03:44:17;14.00;;;9.02;;
70825;SDS011;58446;41.490;22.098;2023-12-07T03:46:43;15.33;;;8.60;;
70825;SDS011;58446;41.490;22.098;2023-12-07T03:49:08;14.70;;;8.33;;
70825;SDS011;58446;41.490;22.098;2023-12-07T03:51:34;14.95;;;8.85;;
70825;SDS011;58446;41.490;22.098;2023-12-07T03:54:01;14.77;;;9.93;;
70825;SDS011;58446;41.490;22.098;2023-12-07T03:56:29;17.17;;;9.90;;
70825;SDS011;58446;41.490;22.098;2023-12-07T03:58:55;15.68;;;8.85;;
70825;SDS011;58446;41.490;22.098;2023-12-07T04:01:22;16.20;;;9.13;;
70825;SDS011;58446;41.490;22.098;2023-12-07T04:03:55;15.10;;;10.18;;
70825;SDS011;58446;41.490;22.098;2023-12-07T04:06:22;15.93;;;9.98;;
70825;SDS011;58446;41.490;22.098;2023-12-07T04:08:48;17.83;;;10.57;;
70825;SDS011;58446;41.490;22.098;2023-12-07T04:11:14;15.52;;;10.23;;
70825;SDS011;58446;41.490;22.098;2023-12-07T04:13:40;16.65;;;9.43;;
70825;SDS011;58446;41.490;22.098;2023-12-07T04:16:07;16.58;;;10.35;;
70825;SDS011;58446;41.490;22.098;2023-12-07T04:18:33;15.80;;;9.30;;
70825;SDS011;58446;41.490;22.098;2023-12-07T04:20:59;16.45;;;9.55;;
70825;SDS011;58446;41.490;22.098;2023-12-07T04:23:25;17.13;;;10.17;;
70825;SDS011;58446;41.490;22.098;2023-12-07T04:25:50;16.55;;;9.50;;
70825;SDS011;58446;41.490;22.098;2023-12-07T04:28:16;15.73;;;9.57;;
70825;SDS011;58446;41.490;22.098;2023-12-07T04:30:42;17.85;;;9.63;;
70825;SDS011;58446;41.490;22.098;2023-12-07T04:33:07;19.73;;;10.15;;
70825;SDS011;58446;41.490;22.098;2023-12-07T04:35:33;19.30;;;10.80;;
70825;SDS011;58446;41.490;22.098;2023-12-07T04:38:00;17.27;;;9.98;;
70825;SDS011;58446;41.490;22.098;2023-12-07T04:40:25;14.83;;;9.73;;
70825;SDS011;58446;41.490;22.098;2023-12-07T04:42:51;15.13;;;9.48;;
70825;SDS011;58446;41.490;22.098;2023-12-07T04:45:17;14.30;;;9.10;;
70825;SDS011;58446;41.490;22.098;2023-12-07T04:47:43;16.60;;;9.43;;
70825;SDS011;58446;41.490;22.098;2023-12-07T04:50:08;15.55;;;9.77;;
70825;SDS011;58446;41.490;22.098;2023-12-07T04:52:35;30.63;;;14.57;;
70825;SDS011;58446;41.490;22.098;2023-12-07T04:55:01;45.27;;;21.60;;
70825;SDS011;58446;41.490;22.098;2023-12-07T04:57:26;35.25;;;16.95;;
70825;SDS011;58446;41.490;22.098;2023-12-07T04:59:52;28.50;;;14.83;;
70825;SDS011;58446;41.490;22.098;2023-12-07T05:02:18;23.08;;;12.88;;
70825;SDS011;58446;41.490;22.098;2023-12-07T05:04:44;24.70;;;12.97;;
70825;SDS011;58446;41.490;22.098;2023-12-07T05:07:12;21.58;;;13.20;;
70825;SDS011;58446;41.490;22.098;2023-12-07T05:09:38;22.27;;;12.95;;
70825;SDS011;58446;41.490;22.098;2023-12-07T05:12:05;26.40;;;14.27;;
70825;SDS011;58446;41.490;22.098;2023-12-07T05:14:31;28.50;;;13.77;;
70825;SDS011;58446;41.490;22.098;2023-12-07T05:16:57;23.35;;;13.68;;
70825;SDS011;58446;41.490;22.098;2023-12-07T05:19:23;25.60;;;15.02;;
70825;SDS011;58446;41.490;22.098;2023-12-07T05:21:50;37.58;;;22.50;;
70825;SDS011;58446;41.490;22.098;2023-12-07T05:24:16;28.83;;;17.90;;
70825;SDS011;58446;41.490;22.098;2023-12-07T05:26:42;35.05;;;18.88;;
70825;SDS011;58446;41.490;22.098;2023-12-07T05:29:09;31.50;;;18.65;;
70825;SDS011;58446;41.490;22.098;2023-12-07T05:31:35;32.35;;;18.95;;
70825;SDS011;58446;41.490;22.098;2023-12-07T05:34:01;42.72;;;23.25;;
70825;SDS011;58446;41.490;22.098;2023-12-07T05:36:27;34.93;;;21.57;;
70825;SDS011;58446;41.490;22.098;2023-12-07T05:38:53;39.13;;;21.88;;
70825;SDS011;58446;41.490;22.098;2023-12-07T05:41:19;36.03;;;20.73;;
70825;SDS011;58446;41.490;22.098;2023-12-07T05:43:44;33.78;;;20.33;;
70825;SDS011;58446;41.490;22.098;2023-12-07T05:46:10;35.13;;;21.07;;
70825;SDS011;58446;41.490;22.098;2023-12-07T05:48:36;35.88;;;21.63;;
70825;SDS011;58446;41.490;22.098;2023-12-07T05:51:02;42.97;;;22.13;;
70825;SDS011;58446;41.490;22.098;2023-12-07T05:53:28;38.83;;;21.60;;
70825;SDS011;58446;41.490;22.098;2023-12-07T05:55:55;36.38;;;19.85;;
70825;SDS011;58446;41.490;22.098;2023-12-07T05:58:20;36.33;;;19.53;;
70825;SDS011;58446;41.490;22.098;2023-12-07T06:00:46;31.50;;;17.15;;
70825;SDS011;58446;41.490;22.098;2023-12-07T06:03:12;30.90;;;17.50;;
70825;SDS011;58446;41.490;22.098;2023-12-07T06:05:38;25.13;;;15.07;;
70825;SDS011;58446;41.490;22.098;2023-12-07T06:08:05;23.88;;;14.35;;
70825;SDS011;58446;41.490;22.098;2023-12-07T06:10:31;27.30;;;15.20;;
70825;SDS011;58446;41.490;22.098;2023-12-07T06:12:57;29.92;;;17.27;;
70825;SDS011;58446;41.490;22.098;2023-12-07T06:15:26;33.50;;;17.52;;
70825;SDS011;58446;41.490;22.098;2023-12-07T06:17:52;31.60;;;17.15;;
70825;SDS011;58446;41.490;22.098;2023-12-07T06:20:19;27.07;;;15.40;;
70825;SDS011;58446;41.490;22.098;2023-12-07T06:22:45;26.27;;;14.25;;
70825;SDS011;58446;41.490;22.098;2023-12-07T06:25:11;26.05;;;14.07;;
70825;SDS011;58446;41.490;22.098;2023-12-07T06:27:37;16.47;;;11.00;;
70825;SDS011;58446;41.490;22.098;2023-12-07T06:30:03;18.88;;;11.65;;
70825;SDS011;58446;41.490;22.098;2023-12-07T06:32:33;18.00;;;10.88;;
70825;SDS011;58446;41.490;22.098;2023-12-07T06:34:59;16.63;;;9.25;;
70825;SDS011;58446;41.490;22.098;2023-12-07T06:37:25;21.63;;;12.73;;
70825;SDS011;58446;41.490;22.098;2023-12-07T06:39:51;76.70;;;41.55;;
70825;SDS011;58446;41.490;22.098;2023-12-07T06:42:17;27.20;;;15.50;;
70825;SDS011;58446;41.490;22.098;2023-12-07T06:44:43;13.63;;;7.75;;
70825;SDS011;58446;41.490;22.098;2023-12-07T06:47:11;15.47;;;7.93;;
70825;SDS011;58446;41.490;22.098;2023-12-07T06:49:37;24.67;;;14.63;;
70825;SDS011;58446;41.490;22.098;2023-12-07T06:52:02;22.07;;;12.60;;
70825;SDS011;58446;41.490;22.098;2023-12-07T06:54:28;23.25;;;13.23;;
70825;SDS011;58446;41.490;22.098;2023-12-07T06:56:54;65.13;;;31.17;;
70825;SDS011;58446;41.490;22.098;2023-12-07T06:59:20;22.33;;;13.98;;
70825;SDS011;58446;41.490;22.098;2023-12-07T07:01:45;15.80;;;9.20;;
70825;SDS011;58446;41.490;22.098;2023-12-07T07:04:11;18.57;;;9.73;;
70825;SDS011;58446;41.490;22.098;2023-12-07T07:06:38;22.63;;;13.07;;
70825;SDS011;58446;41.490;22.098;2023-12-07T07:09:05;24.50;;;13.67;;
70825;SDS011;58446;41.490;22.098;2023-12-07T07:11:30;23.05;;;13.75;;
70825;SDS011;58446;41.490;22.098;2023-12-07T07:13:56;21.80;;;12.70;;
70825;SDS011;58446;41.490;22.098;2023-12-07T07:16:21;21.77;;;13.55;;
70825;SDS011;58446;41.490;22.098;2023-12-07T07:18:47;21.87;;;12.30;;
70825;SDS011;58446;41.490;22.098;2023-12-07T07:21:13;21.58;;;12.25;;
70825;SDS011;58446;41.490;22.098;2023-12-07T07:23:39;23.10;;;13.43;;
70825;SDS011;58446;41.490;22.098;2023-12-07T07:26:04;30.70;;;15.55;;
70825;SDS011;58446;41.490;22.098;2023-12-07T07:28:30;31.47;;;15.80;;
70825;SDS011;58446;41.490;22.098;2023-12-07T07:30:56;41.70;;;19.42;;
70825;SDS011;58446;41.490;22.098;2023-12-07T07:33:22;41.72;;;20.67;;
70825;SDS011;58446;41.490;22.098;2023-12-07T07:35:47;54.03;;;22.63;;
70825;SDS011;58446;41.490;22.098;2023-12-07T07:38:13;51.27;;;21.50;;
70825;SDS011;58446;41.490;22.098;2023-12-07T07:40:39;33.63;;;17.80;;
70825;SDS011;58446;41.490;22.098;2023-12-07T07:43:06;27.10;;;15.48;;
70825;SDS011;58446;41.490;22.098;2023-12-07T07:45:32;38.17;;;18.80;;
70825;SDS011;58446;41.490;22.098;2023-12-07T07:47:58;24.47;;;15.53;;
70825;SDS011;58446;41.490;22.098;2023-12-07T07:50:24;31.05;;;16.48;;
70825;SDS011;58446;41.490;22.098;2023-12-07T07:52:49;33.87;;;16.77;;
70825;SDS011;58446;41.490;22.098;2023-12-07T07:55:15;28.38;;;16.63;;
70825;SDS011;58446;41.490;22.098;2023-12-07T07:57:41;32.10;;;18.33;;
70825;SDS011;58446;41.490;22.098;2023-12-07T08:00:08;56.55;;;32.97;;
70825;SDS011;58446;41.490;22.098;2023-12-07T08:02:34;34.70;;;19.73;;
70825;SDS011;58446;41.490;22.098;2023-12-07T08:05:01;35.63;;;20.90;;
70825;SDS011;58446;41.490;22.098;2023-12-07T08:07:27;39.40;;;23.65;;
70825;SDS011;58446;41.490;22.098;2023-12-07T08:09:53;46.08;;;25.30;;
70825;SDS011;58446;41.490;22.098;2023-12-07T08:12:18;66.20;;;35.03;;
70825;SDS011;58446;41.490;22.098;2023-12-07T08:14:44;46.83;;;27.38;;
70825;SDS011;58446;41.490;22.098;2023-12-07T08:17:11;49.73;;;30.43;;
70825;SDS011;58446;41.490;22.098;2023-12-07T08:19:37;64.70;;;40.25;;
70825;SDS011;58446;41.490;22.098;2023-12-07T08:22:05;46.17;;;29.20;;
70825;SDS011;58446;41.490;22.098;2023-12-07T08:24:31;62.90;;;40.83;;
70825;SDS011;58446;41.490;22.098;2023-12-07T08:26:56;58.53;;;34.40;;
70825;SDS011;58446;41.490;22.098;2023-12-07T08:29:22;60.17;;;34.37;;
70825;SDS011;58446;41.490;22.098;2023-12-07T08:31:47;49.85;;;31.52;;
70825;SDS011;58446;41.490;22.098;2023-12-07T08:34:13;48.23;;;27.27;;
70825;SDS011;58446;41.490;22.098;2023-12-07T08:36:39;44.55;;;26.55;;
70825;SDS011;58446;41.490;22.098;2023-12-07T08:39:05;43.90;;;27.30;;
70825;SDS011;58446;41.490;22.098;2023-12-07T08:41:35;48.30;;;28.52;;
70825;SDS011;58446;41.490;22.098;2023-12-07T08:44:01;42.40;;;27.02;;
70825;SDS011;58446;41.490;22.098;2023-12-07T08:46:27;46.90;;;27.67;;
70825;SDS011;58446;41.490;22.098;2023-12-07T08:48:53;49.03;;;27.38;;
70825;SDS011;58446;41.490;22.098;2023-12-07T08:51:19;45.03;;;25.58;;
70825;SDS011;58446;41.490;22.098;2023-12-07T08:53:44;41.33;;;23.80;;
70825;SDS011;58446;41.490;22.098;2023-12-07T08:56:11;48.92;;;25.40;;
70825;SDS011;58446;41.490;22.098;2023-12-07T08:58:38;40.42;;;22.45;;
70825;SDS011;58446;41.490;22.098;2023-12-07T09:01:04;38.15;;;19.77;;
70825;SDS011;58446;41.490;22.098;2023-12-07T09:03:33;40.67;;;20.57;;
70825;SDS011;58446;41.490;22.098;2023-12-07T09:05:59;60.00;;;29.05;;
70825;SDS011;58446;41.490;22.098;2023-12-07T09:08:25;45.22;;;23.25;;
70825;SDS011;58446;41.490;22.098;2023-12-07T09:10:51;34.50;;;18.48;;
70825;SDS011;58446;41.490;22.098;2023-12-07T09:13:17;23.37;;;13.80;;
70825;SDS011;58446;41.490;22.098;2023-12-07T09:15:43;24.30;;;14.43;;
70825;SDS011;58446;41.490;22.098;2023-12-07T09:18:09;21.30;;;12.70;;
70825;SDS011;58446;41.490;22.098;2023-12-07T09:20:39;20.53;;;11.97;;
70825;SDS011;58446;41.490;22.098;2023-12-07T09:23:11;21.80;;;12.73;;
70825;SDS011;58446;41.490;22.098;2023-12-07T09:25:43;18.85;;;11.88;;
70825;SDS011;58446;41.490;22.098;2023-12-07T09:28:08;17.17;;;10.32;;
70825;SDS011;58446;41.490;22.098;2023-12-07T09:30:34;14.47;;;9.30;;
70825;SDS011;58446;41.490;22.098;2023-12-07T09:33:00;13.32;;;8.73;;
70825;SDS011;58446;41.490;22.098;2023-12-07T09:35:29;12.55;;;8.32;;
70825;SDS011;58446;41.490;22.098;2023-12-07T09:37:55;13.43;;;8.88;;
70825;SDS011;58446;41.490;22.098;2023-12-07T09:40:21;16.90;;;10.17;;
70825;SDS011;58446;41.490;22.098;2023-12-07T09:42:48;18.92;;;11.10;;
70825;SDS011;58446;41.490;22.098;2023-12-07T09:45:14;18.67;;;11.15;;
70825;SDS011;58446;41.490;22.098;2023-12-07T09:47:48;16.92;;;10.18;;
70825;SDS011;58446;41.490;22.098;2023-12-07T09:50:15;14.67;;;9.10;;
70825;SDS011;58446;41.490;22.098;2023-12-07T09:52:48;16.20;;;9.65;;
70825;SDS011;58446;41.490;22.098;2023-12-07T09:55:19;14.38;;;9.52;;
70825;SDS011;58446;41.490;22.098;2023-12-07T09:57:48;14.43;;;9.07;;
70825;SDS011;58446;41.490;22.098;2023-12-07T10:00:19;13.00;;;7.80;;
70825;SDS011;58446;41.490;22.098;2023-12-07T10:02:45;17.30;;;8.70;;
70825;SDS011;58446;41.490;22.098;2023-12-07T10:05:12;14.95;;;8.60;;
70825;SDS011;58446;41.490;22.098;2023-12-07T10:07:41;15.45;;;8.00;;
70825;SDS011;58446;41.490;22.098;2023-12-07T10:10:08;30.37;;;14.63;;
70825;SDS011;58446;41.490;22.098;2023-12-07T10:12:48;26.65;;;12.82;;
70825;SDS011;58446;41.490;22.098;2023-12-07T10:15:18;24.63;;;13.57;;
70825;SDS011;58446;41.490;22.098;2023-12-07T10:17:49;18.15;;;11.30;;
70825;SDS011;58446;41.490;22.098;2023-12-07T10:20:23;16.65;;;10.70;;
70825;SDS011;58446;41.490;22.098;2023-12-07T10:23:11;17.50;;;11.17;;
70825;SDS011;58446;41.490;22.098;2023-12-07T10:25:37;14.02;;;9.40;;
70825;SDS011;58446;41.490;22.098;2023-12-07T10:28:06;18.27;;;11.18;;
70825;SDS011;58446;41.490;22.098;2023-12-07T10:30:33;20.48;;;13.45;;
70825;SDS011;58446;41.490;22.098;2023-12-07T10:32:59;13.13;;;9.02;;
70825;SDS011;58446;41.490;22.098;2023-12-07T10:35:25;18.70;;;11.20;;
70825;SDS011;58446;41.490;22.098;2023-12-07T10:37:51;33.45;;;16.17;;
70825;SDS011;58446;41.490;22.098;2023-12-07T10:40:16;21.43;;;13.43;;
70825;SDS011;58446;41.490;22.098;2023-12-07T10:42:47;12.00;;;8.18;;
70825;SDS011;58446;41.490;22.098;2023-12-07T10:45:13;11.70;;;8.10;;
70825;SDS011;58446;41.490;22.098;2023-12-07T10:47:43;16.92;;;11.05;;
70825;SDS011;58446;41.490;22.098;2023-12-07T10:50:09;19.05;;;11.68;;
70825;SDS011;58446;41.490;22.098;2023-12-07T10:52:48;13.97;;;8.87;;
70825;SDS011;58446;41.490;22.098;2023-12-07T10:55:20;13.68;;;9.43;;
70825;SDS011;58446;41.490;22.098;2023-12-07T10:57:52;16.70;;;10.13;;
70825;SDS011;58446;41.490;22.098;2023-12-07T11:00:21;18.02;;;10.23;;
70825;SDS011;58446;41.490;22.098;2023-12-07T11:02:53;16.10;;;9.63;;
70825;SDS011;58446;41.490;22.098;2023-12-07T11:05:19;37.33;;;16.07;;
70825;SDS011;58446;41.490;22.098;2023-12-07T11:10:27;27.13;;;12.73;;
70825;SDS011;58446;41.490;22.098;2023-12-07T11:13:08;21.33;;;10.55;;
70825;SDS011;58446;41.490;22.098;2023-12-07T11:15:40;19.55;;;10.18;;
70825;SDS011;58446;41.490;22.098;2023-12-07T11:18:06;22.53;;;11.23;;
70825;SDS011;58446;41.490;22.098;2023-12-07T11:20:44;22.90;;;12.27;;
70825;SDS011;58446;41.490;22.098;2023-12-07T11:23:15;36.05;;;20.75;;
70825;SDS011;58446;41.490;22.098;2023-12-07T11:25:45;29.50;;;14.33;;
70825;SDS011;58446;41.490;22.098;2023-12-07T11:28:12;23.92;;;14.65;;
70825;SDS011;58446;41.490;22.098;2023-12-07T11:30:38;19.98;;;13.10;;
70825;SDS011;58446;41.490;22.098;2023-12-07T11:33:08;21.08;;;12.23;;
70825;SDS011;58446;41.490;22.098;2023-12-07T11:38:36;20.57;;;15.10;;
70825;SDS011;58446;41.490;22.098;2023-12-07T11:41:03;28.00;;;21.75;;
70825;SDS011;58446;41.490;22.098;2023-12-07T11:45:57;25.17;;;16.50;;
70825;SDS011;58446;41.490;22.098;2023-12-07T11:48:23;18.30;;;13.57;;
70825;SDS011;58446;41.490;22.098;2023-12-07T11:51:02;21.70;;;14.52;;
70825;SDS011;58446;41.490;22.098;2023-12-07T11:53:35;20.67;;;14.03;;
70825;SDS011;58446;41.490;22.098;2023-12-07T11:56:03;21.88;;;14.00;;
70825;SDS011;58446;41.490;22.098;2023-12-07T11:58:34;31.90;;;18.00;;
70825;SDS011;58446;41.490;22.098;2023-12-07T12:01:00;22.10;;;12.98;;
70825;SDS011;58446;41.490;22.098;2023-12-07T12:03:27;19.38;;;12.77;;
70825;SDS011;58446;41.490;22.098;2023-12-07T12:05:53;20.80;;;12.63;;
70825;SDS011;58446;41.490;22.098;2023-12-07T12:08:22;17.52;;;11.15;;
70825;SDS011;58446;41.490;22.098;2023-12-07T12:10:49;21.05;;;14.40;;
70825;SDS011;58446;41.490;22.098;2023-12-07T12:13:25;14.85;;;10.30;;
70825;SDS011;58446;41.490;22.098;2023-12-07T12:15:53;16.23;;;11.32;;
70825;SDS011;58446;41.490;22.098;2023-12-07T12:18:18;17.47;;;13.23;;
70825;SDS011;58446;41.490;22.098;2023-12-07T12:20:45;15.40;;;10.90;;
70825;SDS011;58446;41.490;22.098;2023-12-07T12:23:11;11.17;;;7.40;;
70825;SDS011;58446;41.490;22.098;2023-12-07T12:25:37;9.60;;;6.22;;
70825;SDS011;58446;41.490;22.098;2023-12-07T12:28:05;8.50;;;6.03;;
70825;SDS011;58446;41.490;22.098;2023-12-07T12:30:32;8.20;;;5.87;;
70825;SDS011;58446;41.490;22.098;2023-12-07T12:32:58;8.40;;;5.82;;
70825;SDS011;58446;41.490;22.098;2023-12-07T12:35:27;8.52;;;6.32;;
70825;SDS011;58446;41.490;22.098;2023-12-07T12:37:54;10.23;;;7.75;;
70825;SDS011;58446;41.490;22.098;2023-12-07T12:40:21;8.95;;;6.72;;
70825;SDS011;58446;41.490;22.098;2023-12-07T12:42:49;9.73;;;7.20;;
70825;SDS011;58446;41.490;22.098;2023-12-07T12:45:16;10.68;;;8.15;;
70825;SDS011;58446;41.490;22.098;2023-12-07T12:47:46;9.10;;;6.57;;
70825;SDS011;58446;41.490;22.098;2023-12-07T12:50:33;8.60;;;6.30;;
70825;SDS011;58446;41.490;22.098;2023-12-07T12:53:05;9.18;;;7.28;;
70825;SDS011;58446;41.490;22.098;2023-12-07T12:55:35;7.90;;;5.63;;
70825;SDS011;58446;41.490;22.098;2023-12-07T12:58:08;8.52;;;5.85;;
70825;SDS011;58446;41.490;22.098;2023-12-07T13:00:38;8.57;;;6.65;;
70825;SDS011;58446;41.490;22.098;2023-12-07T13:03:05;11.05;;;8.75;;
70825;SDS011;58446;41.490;22.098;2023-12-07T13:05:31;11.73;;;8.73;;
70825;SDS011;58446;41.490;22.098;2023-12-07T13:07:59;10.30;;;7.17;;
70825;SDS011;58446;41.490;22.098;2023-12-07T13:10:25;8.23;;;5.20;;
70825;SDS011;58446;41.490;22.098;2023-12-07T13:12:51;8.20;;;5.90;;
70825;SDS011;58446;41.490;22.098;2023-12-07T13:15:17;8.20;;;5.50;;
70825;SDS011;58446;41.490;22.098;2023-12-07T13:17:43;12.40;;;8.30;;
70825;SDS011;58446;41.490;22.098;2023-12-07T13:20:09;16.67;;;10.45;;
70825;SDS011;58446;41.490;22.098;2023-12-07T13:22:41;17.70;;;10.90;;
70825;SDS011;58446;41.490;22.098;2023-12-07T13:25:11;16.08;;;9.35;;
70825;SDS011;58446;41.490;22.098;2023-12-07T13:27:39;20.73;;;10.90;;
70825;SDS011;58446;41.490;22.098;2023-12-07T13:30:06;13.93;;;9.15;;
70825;SDS011;58446;41.490;22.098;2023-12-07T13:32:35;15.20;;;9.18;;
70825;SDS011;58446;41.490;22.098;2023-12-07T13:35:04;13.87;;;8.57;;
70825;SDS011;58446;41.490;22.098;2023-12-07T13:37:31;11.77;;;8.07;;
70825;SDS011;58446;41.490;22.098;2023-12-07T13:39:57;19.08;;;13.48;;
70825;SDS011;58446;41.490;22.098;2023-12-07T13:42:26;17.20;;;10.90;;
70825;SDS011;58446;41.490;22.098;2023-12-07T13:44:53;12.65;;;8.73;;
70825;SDS011;58446;41.490;22.098;2023-12-07T13:47:21;11.80;;;8.10;;
70825;SDS011;58446;41.490;22.098;2023-12-07T13:49:51;10.77;;;7.28;;
70825;SDS011;58446;41.490;22.098;2023-12-07T13:52:17;11.35;;;7.50;;
70825;SDS011;58446;41.490;22.098;2023-12-07T13:54:43;16.97;;;11.07;;
70825;SDS011;58446;41.490;22.098;2023-12-07T13:57:08;19.75;;;12.65;;
70825;SDS011;58446;41.490;22.098;2023-12-07T13:59:35;15.25;;;9.82;;
70825;SDS011;58446;41.490;22.098;2023-12-07T14:02:02;16.00;;;9.55;;
70825;SDS011;58446;41.490;22.098;2023-12-07T14:04:27;11.03;;;7.93;;
70825;SDS011;58446;41.490;22.098;2023-12-07T14:06:53;11.40;;;8.07;;
70825;SDS011;58446;41.490;22.098;2023-12-07T14:09:19;21.30;;;10.38;;
70825;SDS011;58446;41.490;22.098;2023-12-07T14:11:45;13.77;;;8.25;;
70825;SDS011;58446;41.490;22.098;2023-12-07T14:14:10;11.30;;;7.33;;
70825;SDS011;58446;41.490;22.098;2023-12-07T14:16:38;12.80;;;7.43;;
70825;SDS011;58446;41.490;22.098;2023-12-07T14:19:05;14.48;;;8.20;;
70825;SDS011;58446;41.490;22.098;2023-12-07T14:21:30;10.30;;;7.27;;